sensor_id;sensor_type;location;lat;lon;timestamp;pressure;altitude;pressure_sealevel;temperature;humidity
75585;BME280;64162;53.508;10.476;2023-03-12T00:02:14;100590.25;;;4.03;70.51
75585;BME280;64162;53.508;10.476;2023-03-12T00:04:41;100592.50;;;4.09;70.57
75585;BME280;64162;53.508;10.476;2023-03-12T00:07:07;100599.66;;;4.37;69.53
75585;BME280;64162;53.508;10.476;2023-03-12T00:09:35;100598.72;;;4.38;69.74
75585;BME280;64162;53.508;10.476;2023-03-12T00:12:02;100593.84;;;4.47;69.27
75585;BME280;64162;53.508;10.476;2023-03-12T00:14:29;100592.00;;;4.18;69.21
75585;BME280;64162;53.508;10.476;2023-03-12T00:16:55;100594.53;;;4.19;69.91
75585;BME280;64162;53.508;10.476;2023-03-12T00:19:22;100592.00;;;4.34;69.50
75585;BME280;64162;53.508;10.476;2023-03-12T00:21:48;100598.06;;;4.34;69.39
75585;BME280;64162;53.508;10.476;2023-03-12T00:24:15;100608.97;;;3.93;71.35
75585;BME280;64162;53.508;10.476;2023-03-12T00:26:42;100613.19;;;3.96;71.23
75585;BME280;64162;53.508;10.476;2023-03-12T00:29:08;100603.09;;;3.90;70.82
75585;BME280;64162;53.508;10.476;2023-03-12T00:31:35;100604.59;;;3.94;71.02
75585;BME280;64162;53.508;10.476;2023-03-12T00:34:02;100599.41;;;3.61;71.89
75585;BME280;64162;53.508;10.476;2023-03-12T00:36:30;100597.34;;;3.83;71.24
75585;BME280;64162;53.508;10.476;2023-03-12T00:38:58;100589.94;;;3.76;71.23
75585;BME280;64162;53.508;10.476;2023-03-12T00:41:26;100587.53;;;3.55;71.83
75585;BME280;64162;53.508;10.476;2023-03-12T00:43:53;100590.38;;;3.84;71.40
75585;BME280;64162;53.508;10.476;2023-03-12T00:46:19;100591.41;;;3.97;70.36
75585;BME280;64162;53.508;10.476;2023-03-12T00:48:46;100592.91;;;3.85;70.61
75585;BME280;64162;53.508;10.476;2023-03-12T00:51:13;100598.72;;;3.90;70.76
75585;BME280;64162;53.508;10.476;2023-03-12T00:53:40;100592.94;;;3.68;70.97
75585;BME280;64162;53.508;10.476;2023-03-12T00:56:07;100593.56;;;3.73;71.78
75585;BME280;64162;53.508;10.476;2023-03-12T00:58:34;100596.34;;;3.53;71.99
75585;BME280;64162;53.508;10.476;2023-03-12T01:01:01;100605.13;;;4.01;69.81
75585;BME280;64162;53.508;10.476;2023-03-12T01:03:28;100599.38;;;4.10;69.17
75585;BME280;64162;53.508;10.476;2023-03-12T01:05:54;100589.97;;;3.58;71.97
75585;BME280;64162;53.508;10.476;2023-03-12T01:08:22;100600.00;;;3.33;72.89
75585;BME280;64162;53.508;10.476;2023-03-12T01:10:49;100604.66;;;3.77;71.12
75585;BME280;64162;53.508;10.476;2023-03-12T01:13:16;100607.13;;;4.11;69.27
75585;BME280;64162;53.508;10.476;2023-03-12T01:15:42;100609.38;;;3.86;70.40
75585;BME280;64162;53.508;10.476;2023-03-12T01:18:09;100614.25;;;3.76;70.52
75585;BME280;64162;53.508;10.476;2023-03-12T01:20:36;100617.63;;;3.61;71.26
75585;BME280;64162;53.508;10.476;2023-03-12T01:23:02;100619.31;;;3.62;71.74
75585;BME280;64162;53.508;10.476;2023-03-12T01:25:29;100616.84;;;3.26;72.88
75585;BME280;64162;53.508;10.476;2023-03-12T01:27:56;100614.94;;;3.62;71.77
75585;BME280;64162;53.508;10.476;2023-03-12T01:30:22;100620.56;;;3.55;72.09
75585;BME280;64162;53.508;10.476;2023-03-12T01:32:50;100627.34;;;3.75;71.07
75585;BME280;64162;53.508;10.476;2023-03-12T01:35:17;100621.97;;;3.27;72.42
75585;BME280;64162;53.508;10.476;2023-03-12T01:37:44;100620.47;;;3.56;71.46
75585;BME280;64162;53.508;10.476;2023-03-12T01:40:22;100620.13;;;3.80;70.74
75585;BME280;64162;53.508;10.476;2023-03-12T01:42:56;100630.78;;;3.25;72.31
75585;BME280;64162;53.508;10.476;2023-03-12T01:48:39;100622.00;;;3.60;71.45
75585;BME280;64162;53.508;10.476;2023-03-12T01:51:09;100626.00;;;3.50;72.15
75585;BME280;64162;53.508;10.476;2023-03-12T01:53:39;100619.88;;;3.51;72.19
75585;BME280;64162;53.508;10.476;2023-03-12T01:56:08;100626.38;;;3.93;70.82
75585;BME280;64162;53.508;10.476;2023-03-12T01:58:39;100626.00;;;3.50;71.87
75585;BME280;64162;53.508;10.476;2023-03-12T02:01:08;100621.94;;;3.62;71.58
75585;BME280;64162;53.508;10.476;2023-03-12T02:03:35;100629.13;;;3.57;72.85
75585;BME280;64162;53.508;10.476;2023-03-12T02:06:06;100629.66;;;3.63;72.59
75585;BME280;64162;53.508;10.476;2023-03-12T02:08:40;100634.97;;;3.95;70.88
75585;BME280;64162;53.508;10.476;2023-03-12T02:11:08;100637.31;;;4.00;71.35
75585;BME280;64162;53.508;10.476;2023-03-12T02:13:35;100645.72;;;4.05;70.15
75585;BME280;64162;53.508;10.476;2023-03-12T02:16:02;100641.41;;;3.88;71.54
75585;BME280;64162;53.508;10.476;2023-03-12T02:18:29;100634.63;;;3.68;72.62
75585;BME280;64162;53.508;10.476;2023-03-12T02:21:25;100648.25;;;4.06;71.05
75585;BME280;64162;53.508;10.476;2023-03-12T02:26:31;100634.47;;;3.71;71.39
75585;BME280;64162;53.508;10.476;2023-03-12T02:29:00;100638.69;;;4.22;70.15
75585;BME280;64162;53.508;10.476;2023-03-12T02:31:43;100638.69;;;4.22;70.35
75585;BME280;64162;53.508;10.476;2023-03-12T02:34:12;100636.75;;;3.77;71.53
75585;BME280;64162;53.508;10.476;2023-03-12T02:36:38;100641.97;;;4.26;70.03
75585;BME280;64162;53.508;10.476;2023-03-12T02:39:05;100647.25;;;3.43;72.74
75585;BME280;64162;53.508;10.476;2023-03-12T02:41:37;100641.53;;;3.69;72.63
75585;BME280;64162;53.508;10.476;2023-03-12T02:44:11;100647.84;;;3.98;71.42
75585;BME280;64162;53.508;10.476;2023-03-12T02:46:41;100640.25;;;4.09;71.40
75585;BME280;64162;53.508;10.476;2023-03-12T02:49:09;100641.84;;;4.12;70.66
75585;BME280;64162;53.508;10.476;2023-03-12T02:51:39;100640.16;;;3.62;71.75
75585;BME280;64162;53.508;10.476;2023-03-12T02:54:07;100642.28;;;3.71;72.45
75585;BME280;64162;53.508;10.476;2023-03-12T02:56:33;100640.13;;;3.79;72.36
75585;BME280;64162;53.508;10.476;2023-03-12T02:59:00;100646.28;;;3.78;71.96
75585;BME280;64162;53.508;10.476;2023-03-12T03:01:30;100645.94;;;3.34;72.89
75585;BME280;64162;53.508;10.476;2023-03-12T03:04:01;100652.97;;;3.49;72.93
75585;BME280;64162;53.508;10.476;2023-03-12T03:06:28;100655.28;;;3.88;71.21
75585;BME280;64162;53.508;10.476;2023-03-12T03:08:56;100651.03;;;3.53;72.50
75585;BME280;64162;53.508;10.476;2023-03-12T03:11:23;100652.94;;;3.67;71.74
75585;BME280;64162;53.508;10.476;2023-03-12T03:13:53;100661.75;;;4.30;70.41
75585;BME280;64162;53.508;10.476;2023-03-12T03:16:21;100656.50;;;3.98;70.37
75585;BME280;64162;53.508;10.476;2023-03-12T03:18:48;100648.91;;;3.61;72.24
75585;BME280;64162;53.508;10.476;2023-03-12T03:21:15;100646.88;;;3.83;71.46
75585;BME280;64162;53.508;10.476;2023-03-12T03:23:45;100654.09;;;3.78;71.68
75585;BME280;64162;53.508;10.476;2023-03-12T03:26:13;100654.81;;;4.13;70.43
75585;BME280;64162;53.508;10.476;2023-03-12T03:28:40;100651.94;;;3.69;71.78
75585;BME280;64162;53.508;10.476;2023-03-12T03:31:07;100650.47;;;4.29;70.16
75585;BME280;64162;53.508;10.476;2023-03-12T03:33:37;100653.94;;;3.64;71.78
75585;BME280;64162;53.508;10.476;2023-03-12T03:36:07;100644.25;;;4.32;69.65
75585;BME280;64162;53.508;10.476;2023-03-12T03:38:38;100646.41;;;4.24;70.23
75585;BME280;64162;53.508;10.476;2023-03-12T03:41:05;100646.50;;;3.74;71.28
75585;BME280;64162;53.508;10.476;2023-03-12T03:43:36;100651.56;;;4.41;68.78
75585;BME280;64162;53.508;10.476;2023-03-12T03:46:04;100654.28;;;4.07;70.14
75585;BME280;64162;53.508;10.476;2023-03-12T03:48:35;100645.00;;;3.52;72.61
75585;BME280;64162;53.508;10.476;2023-03-12T03:51:03;100647.84;;;3.48;71.79
75585;BME280;64162;53.508;10.476;2023-03-12T03:53:33;100641.97;;;3.77;71.25
75585;BME280;64162;53.508;10.476;2023-03-12T03:56:14;100649.03;;;3.75;71.01
75585;BME280;64162;53.508;10.476;2023-03-12T03:58:46;100653.22;;;3.95;70.64
75585;BME280;64162;53.508;10.476;2023-03-12T04:01:15;100649.53;;;4.30;68.52
75585;BME280;64162;53.508;10.476;2023-03-12T04:03:43;100658.50;;;3.93;69.32
75585;BME280;64162;53.508;10.476;2023-03-12T04:06:10;100658.13;;;3.84;70.64
75585;BME280;64162;53.508;10.476;2023-03-12T04:08:38;100648.25;;;3.73;70.62
75585;BME280;64162;53.508;10.476;2023-03-12T04:11:10;100650.25;;;3.85;69.50
75585;BME280;64162;53.508;10.476;2023-03-12T04:13:37;100651.78;;;4.05;69.38
75585;BME280;64162;53.508;10.476;2023-03-12T04:16:06;100644.59;;;3.77;70.15
75585;BME280;64162;53.508;10.476;2023-03-12T04:18:33;100643.28;;;3.69;70.75
75585;BME280;64162;53.508;10.476;2023-03-12T04:21:03;100642.63;;;3.98;68.96
75585;BME280;64162;53.508;10.476;2023-03-12T04:23:30;100643.78;;;4.08;68.70
75585;BME280;64162;53.508;10.476;2023-03-12T04:25:57;100640.34;;;4.08;68.79
75585;BME280;64162;53.508;10.476;2023-03-12T04:28:24;100645.00;;;4.34;67.24
75585;BME280;64162;53.508;10.476;2023-03-12T04:30:55;100643.41;;;4.31;67.11
75585;BME280;64162;53.508;10.476;2023-03-12T04:33:22;100644.53;;;3.94;67.92
75585;BME280;64162;53.508;10.476;2023-03-12T04:35:50;100646.09;;;3.81;68.62
75585;BME280;64162;53.508;10.476;2023-03-12T04:38:19;100634.25;;;3.76;69.23
75585;BME280;64162;53.508;10.476;2023-03-12T04:40:46;100628.50;;;4.02;67.09
75585;BME280;64162;53.508;10.476;2023-03-12T04:43:13;100628.22;;;3.91;67.89
75585;BME280;64162;53.508;10.476;2023-03-12T04:45:40;100629.22;;;3.88;68.07
75585;BME280;64162;53.508;10.476;2023-03-12T04:48:08;100622.22;;;3.73;67.50
75585;BME280;64162;53.508;10.476;2023-03-12T04:50:34;100627.50;;;3.72;67.56
75585;BME280;64162;53.508;10.476;2023-03-12T04:53:01;100616.84;;;3.43;68.80
75585;BME280;64162;53.508;10.476;2023-03-12T04:55:28;100623.97;;;3.22;69.25
75585;BME280;64162;53.508;10.476;2023-03-12T04:57:55;100633.91;;;2.80;71.37
75585;BME280;64162;53.508;10.476;2023-03-12T05:00:22;100627.63;;;3.01;70.58
75585;BME280;64162;53.508;10.476;2023-03-12T05:02:49;100626.88;;;2.82;72.51
75585;BME280;64162;53.508;10.476;2023-03-12T05:05:16;100613.38;;;2.91;72.21
75585;BME280;64162;53.508;10.476;2023-03-12T05:07:42;100625.53;;;2.37;73.52
75585;BME280;64162;53.508;10.476;2023-03-12T05:10:10;100621.38;;;3.05;70.52
75585;BME280;64162;53.508;10.476;2023-03-12T05:12:37;100621.59;;;2.83;71.21
75585;BME280;64162;53.508;10.476;2023-03-12T05:15:04;100609.75;;;2.23;74.01
75585;BME280;64162;53.508;10.476;2023-03-12T05:17:30;100619.97;;;2.45;72.76
75585;BME280;64162;53.508;10.476;2023-03-12T05:19:57;100617.47;;;2.06;74.40
75585;BME280;64162;53.508;10.476;2023-03-12T05:22:24;100625.53;;;2.37;72.45
75585;BME280;64162;53.508;10.476;2023-03-12T05:24:51;100617.47;;;2.06;73.88
75585;BME280;64162;53.508;10.476;2023-03-12T05:27:17;100620.28;;;2.20;74.01
75585;BME280;64162;53.508;10.476;2023-03-12T05:29:45;100622.31;;;2.13;73.33
75585;BME280;64162;53.508;10.476;2023-03-12T05:32:12;100632.34;;;1.83;74.46
75585;BME280;64162;53.508;10.476;2023-03-12T05:34:39;100628.94;;;2.20;73.74
75585;BME280;64162;53.508;10.476;2023-03-12T05:37:06;100629.00;;;2.19;73.78
75585;BME280;64162;53.508;10.476;2023-03-12T05:39:32;100620.78;;;2.28;73.22
75585;BME280;64162;53.508;10.476;2023-03-12T05:42:03;100629.13;;;2.35;72.96
75585;BME280;64162;53.508;10.476;2023-03-12T05:44:30;100632.97;;;2.45;72.11
75585;BME280;64162;53.508;10.476;2023-03-12T05:46:57;100630.69;;;2.01;73.65
75585;BME280;64162;53.508;10.476;2023-03-12T05:49:25;100639.38;;;2.38;72.55
75585;BME280;64162;53.508;10.476;2023-03-12T05:51:53;100638.41;;;2.03;73.38
75585;BME280;64162;53.508;10.476;2023-03-12T05:54:24;100644.72;;;1.97;73.56
75585;BME280;64162;53.508;10.476;2023-03-12T05:56:51;100637.16;;;2.11;73.54
75585;BME280;64162;53.508;10.476;2023-03-12T05:59:20;100640.91;;;1.85;73.97
75585;BME280;64162;53.508;10.476;2023-03-12T06:01:48;100640.50;;;1.94;74.20
75585;BME280;64162;53.508;10.476;2023-03-12T06:04:15;100631.16;;;1.90;74.16
75585;BME280;64162;53.508;10.476;2023-03-12T06:06:41;100630.91;;;2.15;73.79
75585;BME280;64162;53.508;10.476;2023-03-12T06:09:08;100628.72;;;2.25;72.83
75585;BME280;64162;53.508;10.476;2023-03-12T06:11:35;100621.53;;;2.85;71.58
75585;BME280;64162;53.508;10.476;2023-03-12T06:14:02;100629.56;;;2.80;71.58
75585;BME280;64162;53.508;10.476;2023-03-12T06:16:29;100634.06;;;2.77;71.91
75585;BME280;64162;53.508;10.476;2023-03-12T06:18:58;100622.41;;;2.67;72.32
75585;BME280;64162;53.508;10.476;2023-03-12T06:21:28;100633.53;;;2.87;71.14
75585;BME280;64162;53.508;10.476;2023-03-12T06:23:56;100628.53;;;2.65;72.16
75585;BME280;64162;53.508;10.476;2023-03-12T06:26:27;100627.94;;;2.78;71.30
75585;BME280;64162;53.508;10.476;2023-03-12T06:28:54;100633.84;;;2.81;71.45
75585;BME280;64162;53.508;10.476;2023-03-12T06:31:21;100627.53;;;2.68;71.89
75585;BME280;64162;53.508;10.476;2023-03-12T06:33:48;100632.41;;;3.27;69.40
75585;BME280;64162;53.508;10.476;2023-03-12T06:36:15;100630.72;;;3.26;69.56
75585;BME280;64162;53.508;10.476;2023-03-12T06:38:42;100629.50;;;2.63;71.03
75585;BME280;64162;53.508;10.476;2023-03-12T06:41:16;100628.41;;;3.03;70.23
75585;BME280;64162;53.508;10.476;2023-03-12T06:43:44;100628.63;;;3.16;70.13
75585;BME280;64162;53.508;10.476;2023-03-12T06:46:14;100631.22;;;2.98;70.43
75585;BME280;64162;53.508;10.476;2023-03-12T06:48:41;100626.41;;;3.08;70.09
75585;BME280;64162;53.508;10.476;2023-03-12T06:51:10;100618.47;;;3.11;69.92
75585;BME280;64162;53.508;10.476;2023-03-12T06:53:37;100616.69;;;2.94;70.37
75585;BME280;64162;53.508;10.476;2023-03-12T06:56:07;100610.56;;;2.95;70.04
75585;BME280;64162;53.508;10.476;2023-03-12T06:58:33;100615.94;;;3.60;68.37
75585;BME280;64162;53.508;10.476;2023-03-12T07:01:00;100608.59;;;3.68;67.34
75585;BME280;64162;53.508;10.476;2023-03-12T07:03:26;100607.59;;;3.71;67.05
75585;BME280;64162;53.508;10.476;2023-03-12T07:05:56;100608.31;;;3.90;66.68
75585;BME280;64162;53.508;10.476;2023-03-12T07:08:23;100607.94;;;3.80;66.86
75585;BME280;64162;53.508;10.476;2023-03-12T07:10:50;100610.66;;;3.94;66.57
75585;BME280;64162;53.508;10.476;2023-03-12T07:13:16;100605.78;;;4.20;66.00
75585;BME280;64162;53.508;10.476;2023-03-12T07:15:43;100611.84;;;4.20;66.33
75585;BME280;64162;53.508;10.476;2023-03-12T07:18:12;100609.16;;;4.22;65.50
75585;BME280;64162;53.508;10.476;2023-03-12T07:20:39;100613.38;;;4.24;65.91
75585;BME280;64162;53.508;10.476;2023-03-12T07:23:06;100614.28;;;4.39;65.37
75585;BME280;64162;53.508;10.476;2023-03-12T07:25:37;100612.88;;;4.79;64.31
75585;BME280;64162;53.508;10.476;2023-03-12T07:28:04;100616.06;;;4.84;64.28
75585;BME280;64162;53.508;10.476;2023-03-12T07:30:31;100616.00;;;4.70;65.25
75585;BME280;64162;53.508;10.476;2023-03-12T07:33:00;100620.09;;;4.44;66.45
75585;BME280;64162;53.508;10.476;2023-03-12T07:35:27;100605.91;;;5.10;63.88
75585;BME280;64162;53.508;10.476;2023-03-12T07:37:54;100611.00;;;4.04;65.77
75585;BME280;64162;53.508;10.476;2023-03-12T07:40:21;100612.19;;;4.46;63.75
75585;BME280;64162;53.508;10.476;2023-03-12T07:42:49;100606.75;;;5.10;64.50
75585;BME280;64162;53.508;10.476;2023-03-12T07:45:17;100606.75;;;5.24;63.37
75585;BME280;64162;53.508;10.476;2023-03-12T07:47:43;100607.38;;;5.44;63.72
75585;BME280;64162;53.508;10.476;2023-03-12T07:50:10;100604.38;;;5.36;62.57
75585;BME280;64162;53.508;10.476;2023-03-12T07:52:37;100606.47;;;5.73;62.70
75585;BME280;64162;53.508;10.476;2023-03-12T07:55:04;100604.69;;;5.74;61.85
75585;BME280;64162;53.508;10.476;2023-03-12T07:57:32;100601.16;;;5.89;61.54
75585;BME280;64162;53.508;10.476;2023-03-12T07:59:59;100614.25;;;5.30;63.44
75585;BME280;64162;53.508;10.476;2023-03-12T08:02:25;100609.41;;;4.49;64.81
75585;BME280;64162;53.508;10.476;2023-03-12T08:04:52;100610.63;;;5.47;64.03
75585;BME280;64162;53.508;10.476;2023-03-12T08:07:18;100618.22;;;5.52;63.09
75585;BME280;64162;53.508;10.476;2023-03-12T08:09:45;100609.19;;;6.00;61.77
75585;BME280;64162;53.508;10.476;2023-03-12T08:12:14;100609.44;;;5.53;62.91
75585;BME280;64162;53.508;10.476;2023-03-12T08:14:41;100607.31;;;5.74;62.04
75585;BME280;64162;53.508;10.476;2023-03-12T08:17:08;100605.16;;;5.66;62.21
75585;BME280;64162;53.508;10.476;2023-03-12T08:19:34;100599.38;;;5.89;61.09
75585;BME280;64162;53.508;10.476;2023-03-12T08:22:01;100604.84;;;6.27;60.52
75585;BME280;64162;53.508;10.476;2023-03-12T08:24:27;100595.03;;;6.31;60.39
75585;BME280;64162;53.508;10.476;2023-03-12T08:26:54;100605.00;;;6.66;59.52
75585;BME280;64162;53.508;10.476;2023-03-12T08:29:21;100608.69;;;6.49;59.70
75585;BME280;64162;53.508;10.476;2023-03-12T08:31:48;100596.81;;;5.88;60.80
75585;BME280;64162;53.508;10.476;2023-03-12T08:34:29;100602.81;;;6.18;59.54
75585;BME280;64162;53.508;10.476;2023-03-12T08:36:55;100602.34;;;6.26;60.37
75585;BME280;64162;53.508;10.476;2023-03-12T08:39:22;100607.44;;;6.69;59.94
75585;BME280;64162;53.508;10.476;2023-03-12T08:41:49;100605.53;;;6.17;57.61
75585;BME280;64162;53.508;10.476;2023-03-12T08:44:16;100598.22;;;7.15;56.77
75585;BME280;64162;53.508;10.476;2023-03-12T08:46:43;100600.63;;;7.18;57.89
75585;BME280;64162;53.508;10.476;2023-03-12T08:49:10;100588.22;;;6.95;56.13
75585;BME280;64162;53.508;10.476;2023-03-12T08:51:36;100589.38;;;6.91;56.22
75585;BME280;64162;53.508;10.476;2023-03-12T08:54:03;100591.66;;;7.35;57.01
75585;BME280;64162;53.508;10.476;2023-03-12T08:56:31;100587.03;;;7.26;56.04
75585;BME280;64162;53.508;10.476;2023-03-12T08:58:58;100596.03;;;7.22;55.86
75585;BME280;64162;53.508;10.476;2023-03-12T09:01:24;100583.88;;;7.34;55.09
75585;BME280;64162;53.508;10.476;2023-03-12T09:03:51;100586.81;;;7.67;55.31
75585;BME280;64162;53.508;10.476;2023-03-12T09:06:20;100589.31;;;7.81;53.83
75585;BME280;64162;53.508;10.476;2023-03-12T09:08:47;100593.56;;;8.08;54.56
75585;BME280;64162;53.508;10.476;2023-03-12T09:11:14;100591.16;;;8.05;54.04
75585;BME280;64162;53.508;10.476;2023-03-12T09:13:42;100592.47;;;8.36;54.83
75585;BME280;64162;53.508;10.476;2023-03-12T09:16:28;100581.50;;;8.05;53.67
75585;BME280;64162;53.508;10.476;2023-03-12T09:18:56;100592.75;;;8.31;53.78
75585;BME280;64162;53.508;10.476;2023-03-12T09:21:22;100578.06;;;8.05;53.40
75585;BME280;64162;53.508;10.476;2023-03-12T09:23:49;100572.09;;;7.90;52.75
75585;BME280;64162;53.508;10.476;2023-03-12T09:26:16;100564.97;;;8.16;53.32
75585;BME280;64162;53.508;10.476;2023-03-12T09:28:42;100565.78;;;8.05;52.96
75585;BME280;64162;53.508;10.476;2023-03-12T09:31:10;100557.09;;;8.16;53.03
75585;BME280;64162;53.508;10.476;2023-03-12T09:33:37;100555.31;;;8.16;52.43
75585;BME280;64162;53.508;10.476;2023-03-12T09:36:04;100556.00;;;8.31;51.88
75585;BME280;64162;53.508;10.476;2023-03-12T09:38:31;100549.94;;;8.31;52.05
75585;BME280;64162;53.508;10.476;2023-03-12T09:41:03;100552.59;;;8.18;51.21
75585;BME280;64162;53.508;10.476;2023-03-12T09:46:00;100551.53;;;8.33;51.67
75585;BME280;64162;53.508;10.476;2023-03-12T09:48:32;100555.84;;;8.21;51.23
75585;BME280;64162;53.508;10.476;2023-03-12T09:51:16;100545.84;;;8.03;51.40
75585;BME280;64162;53.508;10.476;2023-03-12T09:53:55;100534.63;;;9.30;nan
75585;BME280;64162;53.508;10.476;2023-03-12T09:56:25;100529.97;;;8.28;nan
75585;BME280;64162;53.508;10.476;2023-03-12T09:58:52;100527.25;;;8.77;nan
75585;BME280;64162;53.508;10.476;2023-03-12T10:01:35;100508.53;;;8.93;nan
75585;BME280;64162;53.508;10.476;2023-03-12T10:07:01;100501.53;;;9.27;nan
75585;BME280;64162;53.508;10.476;2023-03-12T10:10:19;100499.03;;;9.70;nan
75585;BME280;64162;53.508;10.476;2023-03-12T10:15:52;100492.28;;;9.88;nan
75585;BME280;64162;53.508;10.476;2023-03-12T10:18:33;100482.06;;;9.74;nan
75585;BME280;64162;53.508;10.476;2023-03-12T10:26:30;100469.00;;;10.80;nan
75585;BME280;64162;53.508;10.476;2023-03-12T10:29:16;100461.25;;;11.39;nan
75585;BME280;64162;53.508;10.476;2023-03-12T10:31:52;100439.19;;;11.40;nan
75585;BME280;64162;53.508;10.476;2023-03-12T10:34:28;100407.00;;;11.66;nan
75585;BME280;64162;53.508;10.476;2023-03-12T10:36:59;100396.16;;;11.59;nan
75585;BME280;64162;53.508;10.476;2023-03-12T10:39:28;100398.31;;;12.42;nan
75585;BME280;64162;53.508;10.476;2023-03-12T10:41:55;100384.66;;;13.85;nan
75585;BME280;64162;53.508;10.476;2023-03-12T10:44:25;100386.84;;;13.27;nan
75585;BME280;64162;53.508;10.476;2023-03-12T10:46:58;100387.84;;;13.16;nan
75585;BME280;64162;53.508;10.476;2023-03-12T10:49:32;100379.56;;;12.36;nan
75585;BME280;64162;53.508;10.476;2023-03-12T10:54:47;100383.25;;;11.66;nan
75585;BME280;64162;53.508;10.476;2023-03-12T10:57:14;100375.28;;;12.06;nan
75585;BME280;64162;53.508;10.476;2023-03-12T10:59:44;100372.34;;;11.89;nan
75585;BME280;64162;53.508;10.476;2023-03-12T11:02:31;100375.38;;;11.75;nan
75585;BME280;64162;53.508;10.476;2023-03-12T11:04:58;100376.94;;;11.28;nan
75585;BME280;64162;53.508;10.476;2023-03-12T11:07:27;100365.44;;;11.29;nan
75585;BME280;64162;53.508;10.476;2023-03-12T11:10:15;100353.16;;;10.27;nan
75585;BME280;64162;53.508;10.476;2023-03-12T11:12:57;100359.44;;;10.56;nan
75585;BME280;64162;53.508;10.476;2023-03-12T11:20:49;100349.22;;;9.14;nan
75585;BME280;64162;53.508;10.476;2023-03-12T11:23:29;100347.13;;;9.29;nan
75585;BME280;64162;53.508;10.476;2023-03-12T11:26:00;100336.56;;;9.08;nan
75585;BME280;64162;53.508;10.476;2023-03-12T11:28:39;100334.88;;;9.07;nan
75585;BME280;64162;53.508;10.476;2023-03-12T11:31:40;100336.78;;;9.16;nan
75585;BME280;64162;53.508;10.476;2023-03-12T11:34:04;100351.16;;;9.55;nan
75585;BME280;64162;53.508;10.476;2023-03-12T11:39:19;100360.69;;;8.57;nan
75585;BME280;64162;53.508;10.476;2023-03-12T11:44:33;100362.72;;;9.10;nan
75585;BME280;64162;53.508;10.476;2023-03-12T11:47:15;100361.75;;;8.88;nan
75585;BME280;64162;53.508;10.476;2023-03-12T11:50:02;100346.94;;;8.99;nan
75585;BME280;64162;53.508;10.476;2023-03-12T11:55:37;100335.50;;;8.88;nan
75585;BME280;64162;53.508;10.476;2023-03-12T12:01:01;100335.38;;;8.21;nan
75585;BME280;64162;53.508;10.476;2023-03-12T12:14:15;100334.41;;;14.89;nan
75585;BME280;64162;53.508;10.476;2023-03-12T12:19:57;100319.84;;;7.72;nan
75585;BME280;64162;53.508;10.476;2023-03-12T12:27:40;100312.78;;;7.61;44.98
75585;BME280;64162;53.508;10.476;2023-03-12T12:30:26;100310.81;;;7.76;44.86
75585;BME280;64162;53.508;10.476;2023-03-12T12:35:39;100317.81;;;8.11;43.92
75585;BME280;64162;53.508;10.476;2023-03-12T12:38:30;100314.66;;;8.29;44.16
75585;BME280;64162;53.508;10.476;2023-03-12T12:44:13;100304.13;;;8.07;44.93
75585;BME280;64162;53.508;10.476;2023-03-12T12:46:45;100294.41;;;7.85;45.21
75585;BME280;64162;53.508;10.476;2023-03-12T12:49:18;100295.91;;;8.23;44.90
75585;BME280;64162;53.508;10.476;2023-03-12T12:51:52;100289.81;;;8.00;45.68
75585;BME280;64162;53.508;10.476;2023-03-12T12:54:27;100278.28;;;7.79;45.93
75585;BME280;64162;53.508;10.476;2023-03-12T12:57:18;100278.59;;;8.20;44.87
75585;BME280;64162;53.508;10.476;2023-03-12T13:02:24;100287.59;;;7.83;45.40
75585;BME280;64162;53.508;10.476;2023-03-12T13:04:55;100284.28;;;7.57;46.63
75585;BME280;64162;53.508;10.476;2023-03-12T13:09:54;100267.91;;;7.77;46.67
75585;BME280;64162;53.508;10.476;2023-03-12T13:12:51;100261.66;;;7.67;48.40
75585;BME280;64162;53.508;10.476;2023-03-12T13:20:32;100263.13;;;8.28;47.62
75585;BME280;64162;53.508;10.476;2023-03-12T13:25:38;100255.25;;;8.28;49.17
75585;BME280;64162;53.508;10.476;2023-03-12T13:30:56;100254.84;;;8.11;49.16
75585;BME280;64162;53.508;10.476;2023-03-12T13:33:42;100246.69;;;8.60;49.38
75585;BME280;64162;53.508;10.476;2023-03-12T13:39:38;100223.78;;;8.62;48.87
75585;BME280;64162;53.508;10.476;2023-03-12T13:41:47;100224.78;;;7.92;49.89
75585;BME280;64162;53.508;10.476;2023-03-12T13:49:28;100219.91;;;7.99;52.01
75585;BME280;64162;53.508;10.476;2023-03-12T13:52:14;100219.44;;;7.94;52.69
75585;BME280;64162;53.508;10.476;2023-03-12T13:55:13;100220.28;;;8.28;52.93
75585;BME280;64162;53.508;10.476;2023-03-12T14:00:26;100204.44;;;7.50;54.71
75585;BME280;64162;53.508;10.476;2023-03-12T14:03:05;100201.66;;;8.09;55.06
75585;BME280;64162;53.508;10.476;2023-03-12T14:06:16;100192.84;;;7.99;55.02
75585;BME280;64162;53.508;10.476;2023-03-12T14:11:40;100204.41;;;7.39;56.94
75585;BME280;64162;53.508;10.476;2023-03-12T14:16:55;100179.22;;;7.01;57.54
75585;BME280;64162;53.508;10.476;2023-03-12T14:19:27;100195.25;;;7.55;56.92
75585;BME280;64162;53.508;10.476;2023-03-12T14:21:56;100193.91;;;7.39;57.10
75585;BME280;64162;53.508;10.476;2023-03-12T14:24:32;100200.63;;;7.19;57.62
75585;BME280;64162;53.508;10.476;2023-03-12T14:27:01;100191.91;;;7.53;56.60
75585;BME280;64162;53.508;10.476;2023-03-12T14:29:40;100189.56;;;7.50;57.28
75585;BME280;64162;53.508;10.476;2023-03-12T14:32:16;100183.84;;;7.21;58.86
75585;BME280;64162;53.508;10.476;2023-03-12T14:34:48;100184.78;;;7.20;58.59
75585;BME280;64162;53.508;10.476;2023-03-12T14:37:36;100173.84;;;7.26;59.13
75585;BME280;64162;53.508;10.476;2023-03-12T14:42:46;100149.56;;;7.01;59.96
75585;BME280;64162;53.508;10.476;2023-03-12T14:45:17;100149.16;;;6.83;59.86
75585;BME280;64162;53.508;10.476;2023-03-12T14:47:52;100146.63;;;7.05;60.06